»·PEaware :: N402ER KFAT-KSTS

N402ER :: KFAT-KSTS

FLIGHT INFORMATION

Flight Status: Arrived
Operator: Privately registered:
United States
More flights under this callsign
Pilot: Anonymous 18083 (18083)
Aircraft: CESSNA 172 SKYHAWK
(C172)
More flights by this aircraft type
Origin: KFAT Fresno Yosemite Intl
United States
Destination: KSTS Sonoma Co
United States
More flights between these airports :: More routes between these airports
Route: +CZQ MOD CCR V108 STS
File this flight plan on PilotEdge
Remarks: Sample flight plan
Altitude:
(Current/Filed)
10,000ft
Speed:
(Current/Filed)
150kts
Departed: 15-May-18 08:30 PM
Arrived: 15-May-18 10:05 PM
Distance/Time
Traveled:
180nm/1:35
Distance/Time
To Go:
Arrived

Flight Plot

Page will automatically refresh every two minutes.

Flight plan parsing failed; only flown route is shown


Map Options




Map Legend


Flown Route
Filed Route
Departure Airport
Arrival Airport
Navaid (VOR, NDB)
Fix

Horizontal Profiles

Position Reports

Time Latitude Longitude Heading Altitude Ground
Speed
15-May-18 20:02 36.776415 -119.726401 306 329ft 0kts
15-May-18 20:03 36.776415 -119.726401 306 329ft 0kts
15-May-18 20:04 36.776415 -119.726401 306 329ft 0kts
15-May-18 20:05 36.776415 -119.726401 306 329ft 0kts
15-May-18 20:06 36.776415 -119.726401 306 329ft 0kts
15-May-18 20:07 36.776415 -119.726401 306 329ft 0kts
15-May-18 20:08 36.776415 -119.726401 306 329ft 0kts
15-May-18 20:09 36.776415 -119.726401 306 329ft 0kts
15-May-18 20:10 36.776415 -119.726402 306 329ft 0kts
15-May-18 20:11 36.776415 -119.726401 306 329ft 0kts
15-May-18 20:12 36.776418 -119.726405 306 329ft 0kts
15-May-18 20:13 36.776418 -119.726405 306 329ft 0kts
15-May-18 20:14 36.776418 -119.726405 306 329ft 0kts
15-May-18 20:15 36.776418 -119.726405 306 329ft 0kts
15-May-18 20:16 36.776418 -119.726405 306 329ft 0kts
15-May-18 20:17 36.776418 -119.726405 306 329ft 0kts
15-May-18 20:18 36.776418 -119.726405 306 329ft 0kts
15-May-18 20:19 36.776418 -119.726405 306 329ft 0kts
15-May-18 20:20 36.776418 -119.726405 306 329ft 0kts
15-May-18 20:21 36.776418 -119.726405 306 329ft 0kts
15-May-18 20:22 36.776286 -119.725763 121 329ft 9kts
15-May-18 20:23 36.773664 -119.721112 123 329ft 9kts
15-May-18 20:24 36.772547 -119.718686 89 327ft 21kts
15-May-18 20:25 36.770923 -119.713680 123 327ft 19kts
15-May-18 20:26 36.768277 -119.709033 123 329ft 14kts
15-May-18 20:27 36.767764 -119.704689 47 331ft 3kts
15-May-18 20:28 36.768400 -119.709260 305 329ft 26kts
15-May-18 20:29 36.770663 -119.710812 326 329ft 11kts
15-May-18 20:30 36.778677 -119.724098 308 628ft 66kts
15-May-18 20:31 36.789939 -119.743602 306 1333ft 72kts
15-May-18 20:32 36.801746 -119.764718 306 2029ft 75kts
15-May-18 20:33 36.815485 -119.783839 311 2725ft 73kts
15-May-18 20:34 36.829984 -119.803518 313 3292ft 84kts
15-May-18 20:35 36.846595 -119.826848 310 3797ft 93kts
15-May-18 20:36 36.863678 -119.851385 309 4295ft 94kts
15-May-18 20:37 36.880785 -119.876077 308 4795ft 93kts
15-May-18 20:38 36.894866 -119.896302 306 5209ft 92kts
15-May-18 20:39 36.911665 -119.920360 306 5708ft 91kts
15-May-18 20:40 36.928092 -119.943932 305 6206ft 89kts
15-May-18 20:41 36.944208 -119.967038 305 6687ft 89kts
15-May-18 20:42 36.960957 -119.991008 304 7092ft 93kts
15-May-18 20:43 36.978199 -120.015656 304 7494ft 94kts
15-May-18 20:44 36.995511 -120.040445 303 7897ft 94kts
15-May-18 20:45 37.012859 -120.065331 302 8260ft 97kts
15-May-18 20:46 37.031138 -120.091538 302 8569ft 102kts
15-May-18 20:47 37.050051 -120.118652 302 8877ft 104kts
15-May-18 20:48 37.069352 -120.146365 301 9188ft 106kts
15-May-18 20:49 37.088888 -120.174447 301 9499ft 108kts
15-May-18 20:50 37.108656 -120.202880 302 9800ft 108kts
15-May-18 20:51 37.128954 -120.232169 302 9962ft 120kts
15-May-18 20:52 37.151947 -120.265190 303 9959ft 128kts
15-May-18 20:53 37.175406 -120.298920 303 9957ft 127kts
15-May-18 20:54 37.198561 -120.332343 303 9955ft 127kts
15-May-18 20:55 37.221664 -120.365749 303 9954ft 126kts
15-May-18 20:56 37.244698 -120.399086 303 9953ft 126kts
15-May-18 20:57 37.267540 -120.432191 302 9952ft 125kts
15-May-18 20:58 37.290387 -120.465336 302 9953ft 125kts
15-May-18 20:59 37.313244 -120.498530 303 9957ft 125kts
15-May-18 21:00 37.336025 -120.531646 303 9961ft 125kts
15-May-18 21:01 37.358778 -120.564753 303 9964ft 125kts
15-May-18 21:02 37.381601 -120.597995 303 9967ft 125kts
15-May-18 21:03 37.404440 -120.631295 303 9969ft 125kts
15-May-18 21:04 37.427269 -120.664614 302 9971ft 125kts
15-May-18 21:05 37.450090 -120.697955 302 9972ft 126kts
15-May-18 21:06 37.472977 -120.731428 302 9974ft 126kts
15-May-18 21:07 37.495815 -120.764863 302 9976ft 126kts
15-May-18 21:08 37.518814 -120.798568 302 9978ft 127kts
15-May-18 21:09 37.541808 -120.832302 302 9980ft 127kts
15-May-18 21:10 37.564647 -120.865843 302 9998ft 126kts
15-May-18 21:11 37.587437 -120.899347 302 9999ft 126kts
15-May-18 21:12 37.610339 -120.933045 302 10000ft 126kts
15-May-18 21:13 37.631102 -120.968153 287 10000ft 122kts
15-May-18 21:14 37.646307 -121.006721 287 10001ft 122kts
15-May-18 21:15 37.661369 -121.045383 288 10004ft 123kts
15-May-18 21:16 37.676524 -121.084304 288 10007ft 124kts
15-May-18 21:17 37.691774 -121.123536 288 10010ft 124kts
15-May-18 21:18 37.707051 -121.162843 289 10015ft 125kts
15-May-18 21:19 37.722318 -121.202188 289 10021ft 125kts
15-May-18 21:20 37.737661 -121.241754 289 10024ft 125kts
15-May-18 21:21 37.753007 -121.281423 289 10027ft 125kts
15-May-18 21:22 37.768239 -121.320836 289 10028ft 124kts
15-May-18 21:23 37.783470 -121.360306 289 10028ft 125kts
15-May-18 21:24 37.798595 -121.399534 289 10028ft 124kts
15-May-18 21:25 37.813668 -121.438688 289 10028ft 124kts
15-May-18 21:26 37.828737 -121.477884 289 10034ft 124kts
15-May-18 21:27 37.843913 -121.517401 289 10040ft 125kts
15-May-18 21:28 37.859233 -121.557343 289 10046ft 126kts
15-May-18 21:29 37.874594 -121.597434 290 10052ft 127kts
15-May-18 21:30 37.890382 -121.638684 290 9976ft 129kts
15-May-18 21:31 37.905923 -121.679350 289 9981ft 127kts
15-May-18 21:32 37.921328 -121.719739 289 9984ft 127kts
15-May-18 21:33 37.936834 -121.760438 289 9983ft 128kts
15-May-18 21:34 37.952304 -121.801091 289 9983ft 128kts
15-May-18 21:35 37.967774 -121.841800 290 9984ft 128kts
15-May-18 21:36 37.983258 -121.882599 290 9987ft 128kts
15-May-18 21:37 37.998695 -121.923327 290 9992ft 128kts
15-May-18 21:38 38.014177 -121.964228 290 9992ft 128kts
15-May-18 21:39 38.029683 -122.005248 290 9992ft 128kts
15-May-18 21:40 38.044332 -122.046454 273 9993ft 125kts
15-May-18 21:41 38.048102 -122.090045 269 9992ft 124kts
15-May-18 21:42 38.051485 -122.133728 268 9992ft 124kts
15-May-18 21:43 38.054798 -122.177392 268 9993ft 124kts
15-May-18 21:44 38.071443 -122.215946 306 9994ft 130kts
15-May-18 21:45 38.095028 -122.250717 306 9995ft 130kts
15-May-18 21:46 38.118584 -122.285036 306 9990ft 128kts
15-May-18 21:47 38.141978 -122.319059 306 9989ft 127kts
15-May-18 21:48 38.165370 -122.353088 306 9988ft 127kts
15-May-18 21:49 38.189320 -122.386529 309 9986ft 128kts
15-May-18 21:50 38.213910 -122.418975 309 9985ft 128kts
15-May-18 21:51 38.238638 -122.451706 309 9984ft 128kts
15-May-18 21:52 38.263327 -122.484421 309 9985ft 128kts
15-May-18 21:53 38.288288 -122.517555 310 9827ft 140kts
15-May-18 21:54 38.316356 -122.554678 310 8826ft 146kts
15-May-18 21:55 38.344047 -122.591517 310 7821ft 143kts
15-May-18 21:56 38.371383 -122.627940 310 6816ft 141kts
15-May-18 21:57 38.398250 -122.663778 310 5814ft 140kts
15-May-18 21:58 38.424956 -122.699438 310 4812ft 138kts
15-May-18 21:59 38.450363 -122.735521 290 3765ft 137kts
15-May-18 22:00 38.474258 -122.769246 335 2278ft 142kts
15-May-18 22:01 38.503565 -122.795670 294 1210ft 129kts
15-May-18 22:02 38.516999 -122.825541 329 1177ft 87kts
15-May-18 22:03 38.530433 -122.821737 138 655ft 73kts
15-May-18 22:04 38.515319 -122.812574 156 108ft 41kts
15-May-18 22:05 38.514236 -122.810453 145 108ft 8kts
15-May-18 22:06 38.511122 -122.808733 136 113ft 14kts
15-May-18 22:07 38.511574 -122.807684 11 112ft 12kts
15-May-18 22:08 38.511982 -122.806729 358 112ft 0kts
15-May-18 22:09 38.511982 -122.806729 358 112ft 0kts

Navigation Log

Ident Type
Flight plan parsing failed, navigation log unavailable